sensor_id;sensor_type;location;lat;lon;timestamp;P1;durP1;ratioP1;P2;durP2;ratioP2
51927;SDS011;37953;52.806;18.270;2024-02-16T00:01:08;49.30;;;20.83;;
51927;SDS011;37953;52.806;18.270;2024-02-16T00:03:44;41.33;;;19.65;;
51927;SDS011;37953;52.806;18.270;2024-02-16T00:06:11;36.78;;;18.65;;
51927;SDS011;37953;52.806;18.270;2024-02-16T00:08:46;43.05;;;19.77;;
51927;SDS011;37953;52.806;18.270;2024-02-16T00:11:12;46.80;;;20.00;;
51927;SDS011;37953;52.806;18.270;2024-02-16T00:13:38;46.40;;;19.13;;
51927;SDS011;37953;52.806;18.270;2024-02-16T00:16:04;46.33;;;20.35;;
51927;SDS011;37953;52.806;18.270;2024-02-16T00:18:30;51.25;;;20.77;;
51927;SDS011;37953;52.806;18.270;2024-02-16T00:20:58;51.35;;;21.13;;
51927;SDS011;37953;52.806;18.270;2024-02-16T00:23:24;45.88;;;19.67;;
51927;SDS011;37953;52.806;18.270;2024-02-16T00:25:51;45.17;;;20.50;;
51927;SDS011;37953;52.806;18.270;2024-02-16T00:28:17;46.53;;;20.58;;
51927;SDS011;37953;52.806;18.270;2024-02-16T00:30:43;46.13;;;19.08;;
51927;SDS011;37953;52.806;18.270;2024-02-16T00:33:09;44.15;;;19.85;;
51927;SDS011;37953;52.806;18.270;2024-02-16T00:35:35;53.95;;;20.35;;
51927;SDS011;37953;52.806;18.270;2024-02-16T00:38:01;41.13;;;18.52;;
51927;SDS011;37953;52.806;18.270;2024-02-16T00:40:27;45.03;;;18.90;;
51927;SDS011;37953;52.806;18.270;2024-02-16T00:42:54;45.55;;;18.98;;
51927;SDS011;37953;52.806;18.270;2024-02-16T00:45:21;42.05;;;19.15;;
51927;SDS011;37953;52.806;18.270;2024-02-16T00:47:47;46.05;;;19.02;;
51927;SDS011;37953;52.806;18.270;2024-02-16T00:50:17;40.58;;;17.60;;
51927;SDS011;37953;52.806;18.270;2024-02-16T00:52:43;41.20;;;18.15;;
51927;SDS011;37953;52.806;18.270;2024-02-16T00:55:11;46.50;;;18.40;;
51927;SDS011;37953;52.806;18.270;2024-02-16T00:57:38;46.85;;;18.27;;
51927;SDS011;37953;52.806;18.270;2024-02-16T01:00:04;34.58;;;16.73;;
51927;SDS011;37953;52.806;18.270;2024-02-16T01:02:31;48.47;;;18.23;;
51927;SDS011;37953;52.806;18.270;2024-02-16T01:04:59;40.35;;;17.67;;
51927;SDS011;37953;52.806;18.270;2024-02-16T01:07:27;49.88;;;18.45;;
51927;SDS011;37953;52.806;18.270;2024-02-16T01:09:54;35.35;;;15.73;;
51927;SDS011;37953;52.806;18.270;2024-02-16T01:12:22;35.25;;;17.73;;
51927;SDS011;37953;52.806;18.270;2024-02-16T01:14:48;30.73;;;17.23;;
51927;SDS011;37953;52.806;18.270;2024-02-16T01:17:14;33.75;;;16.45;;
51927;SDS011;37953;52.806;18.270;2024-02-16T01:19:40;34.78;;;18.05;;
51927;SDS011;37953;52.806;18.270;2024-02-16T01:22:06;35.53;;;17.17;;
51927;SDS011;37953;52.806;18.270;2024-02-16T01:24:32;33.75;;;18.35;;
51927;SDS011;37953;52.806;18.270;2024-02-16T01:26:58;33.38;;;17.77;;
51927;SDS011;37953;52.806;18.270;2024-02-16T01:29:29;35.25;;;17.52;;
51927;SDS011;37953;52.806;18.270;2024-02-16T01:31:55;36.22;;;17.35;;
51927;SDS011;37953;52.806;18.270;2024-02-16T01:34:21;37.45;;;17.27;;
51927;SDS011;37953;52.806;18.270;2024-02-16T01:36:47;40.45;;;17.83;;
51927;SDS011;37953;52.806;18.270;2024-02-16T01:39:13;37.22;;;18.80;;
51927;SDS011;37953;52.806;18.270;2024-02-16T01:41:39;34.55;;;17.27;;
51927;SDS011;37953;52.806;18.270;2024-02-16T01:44:05;38.35;;;19.15;;
51927;SDS011;37953;52.806;18.270;2024-02-16T01:46:31;36.30;;;18.52;;
51927;SDS011;37953;52.806;18.270;2024-02-16T01:49:00;38.80;;;18.75;;
51927;SDS011;37953;52.806;18.270;2024-02-16T01:51:26;35.88;;;17.85;;
51927;SDS011;37953;52.806;18.270;2024-02-16T01:53:52;36.78;;;18.08;;
51927;SDS011;37953;52.806;18.270;2024-02-16T01:56:21;38.95;;;18.80;;
51927;SDS011;37953;52.806;18.270;2024-02-16T01:58:47;36.40;;;17.65;;
51927;SDS011;37953;52.806;18.270;2024-02-16T02:01:16;33.80;;;16.52;;
51927;SDS011;37953;52.806;18.270;2024-02-16T02:03:42;38.33;;;18.30;;
51927;SDS011;37953;52.806;18.270;2024-02-16T02:06:08;33.65;;;17.35;;
51927;SDS011;37953;52.806;18.270;2024-02-16T02:08:34;37.15;;;17.77;;
51927;SDS011;37953;52.806;18.270;2024-02-16T02:11:00;32.28;;;17.58;;
51927;SDS011;37953;52.806;18.270;2024-02-16T02:13:28;35.13;;;17.83;;
51927;SDS011;37953;52.806;18.270;2024-02-16T02:15:54;35.20;;;17.55;;
51927;SDS011;37953;52.806;18.270;2024-02-16T02:18:22;37.85;;;19.13;;
51927;SDS011;37953;52.806;18.270;2024-02-16T02:20:47;35.20;;;17.90;;
51927;SDS011;37953;52.806;18.270;2024-02-16T02:23:14;41.80;;;18.15;;
51927;SDS011;37953;52.806;18.270;2024-02-16T02:25:39;34.08;;;16.70;;
51927;SDS011;37953;52.806;18.270;2024-02-16T02:28:06;36.00;;;18.20;;
51927;SDS011;37953;52.806;18.270;2024-02-16T02:30:32;34.45;;;17.42;;
51927;SDS011;37953;52.806;18.270;2024-02-16T02:32:58;36.40;;;17.65;;
51927;SDS011;37953;52.806;18.270;2024-02-16T02:35:24;34.35;;;17.17;;
51927;SDS011;37953;52.806;18.270;2024-02-16T02:37:50;34.25;;;17.83;;
51927;SDS011;37953;52.806;18.270;2024-02-16T02:40:16;35.05;;;17.73;;
51927;SDS011;37953;52.806;18.270;2024-02-16T02:42:42;35.13;;;18.15;;
51927;SDS011;37953;52.806;18.270;2024-02-16T02:45:09;37.70;;;19.13;;
51927;SDS011;37953;52.806;18.270;2024-02-16T02:47:35;34.78;;;17.95;;
51927;SDS011;37953;52.806;18.270;2024-02-16T02:50:02;38.85;;;18.67;;
51927;SDS011;37953;52.806;18.270;2024-02-16T02:52:28;34.63;;;18.13;;
51927;SDS011;37953;52.806;18.270;2024-02-16T02:54:55;36.13;;;18.27;;
51927;SDS011;37953;52.806;18.270;2024-02-16T02:57:21;32.50;;;17.17;;
51927;SDS011;37953;52.806;18.270;2024-02-16T02:59:47;36.65;;;18.13;;
51927;SDS011;37953;52.806;18.270;2024-02-16T03:02:13;47.65;;;18.40;;
51927;SDS011;37953;52.806;18.270;2024-02-16T03:04:39;39.72;;;20.05;;
51927;SDS011;37953;52.806;18.270;2024-02-16T03:07:05;38.35;;;19.63;;
51927;SDS011;37953;52.806;18.270;2024-02-16T03:09:31;176.32;;;23.65;;
51927;SDS011;37953;52.806;18.270;2024-02-16T03:11:57;42.90;;;19.80;;
51927;SDS011;37953;52.806;18.270;2024-02-16T03:14:23;37.22;;;17.73;;
51927;SDS011;37953;52.806;18.270;2024-02-16T03:16:49;37.53;;;18.50;;
51927;SDS011;37953;52.806;18.270;2024-02-16T03:19:15;39.03;;;19.25;;
51927;SDS011;37953;52.806;18.270;2024-02-16T03:21:46;44.03;;;19.70;;
51927;SDS011;37953;52.806;18.270;2024-02-16T03:24:22;44.80;;;21.05;;
51927;SDS011;37953;52.806;18.270;2024-02-16T03:26:48;43.20;;;20.25;;
51927;SDS011;37953;52.806;18.270;2024-02-16T03:29:14;42.50;;;19.38;;
51927;SDS011;37953;52.806;18.270;2024-02-16T03:31:41;47.15;;;19.83;;
51927;SDS011;37953;52.806;18.270;2024-02-16T03:34:07;42.28;;;20.70;;
51927;SDS011;37953;52.806;18.270;2024-02-16T03:36:37;39.20;;;20.98;;
51927;SDS011;37953;52.806;18.270;2024-02-16T03:39:12;38.42;;;21.20;;
51927;SDS011;37953;52.806;18.270;2024-02-16T03:41:38;52.15;;;22.10;;
51927;SDS011;37953;52.806;18.270;2024-02-16T03:44:04;46.30;;;22.27;;
51927;SDS011;37953;52.806;18.270;2024-02-16T03:46:31;47.55;;;21.85;;
51927;SDS011;37953;52.806;18.270;2024-02-16T03:48:56;46.63;;;23.80;;
51927;SDS011;37953;52.806;18.270;2024-02-16T03:51:23;45.90;;;25.10;;
51927;SDS011;37953;52.806;18.270;2024-02-16T03:53:48;50.78;;;26.85;;
51927;SDS011;37953;52.806;18.270;2024-02-16T03:56:18;49.05;;;24.88;;
51927;SDS011;37953;52.806;18.270;2024-02-16T03:58:44;50.07;;;25.60;;
51927;SDS011;37953;52.806;18.270;2024-02-16T04:01:11;54.30;;;24.90;;
51927;SDS011;37953;52.806;18.270;2024-02-16T04:03:36;53.00;;;26.02;;
51927;SDS011;37953;52.806;18.270;2024-02-16T04:06:03;62.25;;;26.13;;
51927;SDS011;37953;52.806;18.270;2024-02-16T04:08:30;47.58;;;24.92;;
51927;SDS011;37953;52.806;18.270;2024-02-16T04:10:56;53.53;;;25.33;;
51927;SDS011;37953;52.806;18.270;2024-02-16T04:13:23;45.33;;;24.85;;
51927;SDS011;37953;52.806;18.270;2024-02-16T04:15:49;48.83;;;24.38;;
51927;SDS011;37953;52.806;18.270;2024-02-16T04:18:15;49.33;;;26.17;;
51927;SDS011;37953;52.806;18.270;2024-02-16T04:20:44;61.90;;;29.98;;
51927;SDS011;37953;52.806;18.270;2024-02-16T04:23:10;48.38;;;28.58;;
51927;SDS011;37953;52.806;18.270;2024-02-16T04:25:36;45.22;;;26.52;;
51927;SDS011;37953;52.806;18.270;2024-02-16T04:28:02;43.92;;;24.23;;
51927;SDS011;37953;52.806;18.270;2024-02-16T04:30:28;40.00;;;23.48;;
51927;SDS011;37953;52.806;18.270;2024-02-16T04:32:54;39.42;;;22.60;;
51927;SDS011;37953;52.806;18.270;2024-02-16T04:35:20;40.45;;;23.52;;
51927;SDS011;37953;52.806;18.270;2024-02-16T04:37:46;39.55;;;23.08;;
51927;SDS011;37953;52.806;18.270;2024-02-16T04:40:13;45.40;;;22.08;;
51927;SDS011;37953;52.806;18.270;2024-02-16T04:42:39;46.45;;;22.08;;
51927;SDS011;37953;52.806;18.270;2024-02-16T04:45:10;45.03;;;21.80;;
51927;SDS011;37953;52.806;18.270;2024-02-16T04:47:40;50.58;;;21.98;;
51927;SDS011;37953;52.806;18.270;2024-02-16T04:50:07;44.75;;;20.52;;
51927;SDS011;37953;52.806;18.270;2024-02-16T04:52:37;37.38;;;20.60;;
51927;SDS011;37953;52.806;18.270;2024-02-16T04:55:04;43.20;;;20.70;;
51927;SDS011;37953;52.806;18.270;2024-02-16T04:57:32;45.30;;;20.13;;
51927;SDS011;37953;52.806;18.270;2024-02-16T05:00:01;43.78;;;19.05;;
51927;SDS011;37953;52.806;18.270;2024-02-16T05:02:27;52.65;;;21.50;;
51927;SDS011;37953;52.806;18.270;2024-02-16T05:04:54;39.25;;;20.02;;
51927;SDS011;37953;52.806;18.270;2024-02-16T05:07:20;38.08;;;18.02;;
51927;SDS011;37953;52.806;18.270;2024-02-16T05:09:46;167.98;;;21.63;;
51927;SDS011;37953;52.806;18.270;2024-02-16T05:12:12;31.60;;;16.38;;
51927;SDS011;37953;52.806;18.270;2024-02-16T05:14:38;34.53;;;17.73;;
51927;SDS011;37953;52.806;18.270;2024-02-16T05:17:04;33.60;;;17.10;;
51927;SDS011;37953;52.806;18.270;2024-02-16T05:19:33;30.40;;;16.60;;
51927;SDS011;37953;52.806;18.270;2024-02-16T05:22:00;32.72;;;16.17;;
51927;SDS011;37953;52.806;18.270;2024-02-16T05:24:27;34.95;;;16.58;;
51927;SDS011;37953;52.806;18.270;2024-02-16T05:26:52;32.15;;;16.60;;
51927;SDS011;37953;52.806;18.270;2024-02-16T05:29:28;29.40;;;16.27;;
51927;SDS011;37953;52.806;18.270;2024-02-16T05:31:54;28.80;;;16.73;;
51927;SDS011;37953;52.806;18.270;2024-02-16T05:34:20;35.00;;;18.00;;
51927;SDS011;37953;52.806;18.270;2024-02-16T05:36:46;30.77;;;16.60;;
51927;SDS011;37953;52.806;18.270;2024-02-16T05:39:13;34.30;;;18.02;;
51927;SDS011;37953;52.806;18.270;2024-02-16T05:41:46;33.58;;;18.55;;
51927;SDS011;37953;52.806;18.270;2024-02-16T05:44:12;35.05;;;18.52;;
51927;SDS011;37953;52.806;18.270;2024-02-16T05:46:39;41.08;;;18.50;;
51927;SDS011;37953;52.806;18.270;2024-02-16T05:49:05;38.70;;;17.48;;
51927;SDS011;37953;52.806;18.270;2024-02-16T05:51:37;32.13;;;17.67;;
51927;SDS011;37953;52.806;18.270;2024-02-16T05:54:07;33.22;;;16.08;;
51927;SDS011;37953;52.806;18.270;2024-02-16T05:56:34;41.35;;;17.08;;
51927;SDS011;37953;52.806;18.270;2024-02-16T05:59:11;34.00;;;17.17;;
51927;SDS011;37953;52.806;18.270;2024-02-16T06:01:37;40.45;;;17.27;;
51927;SDS011;37953;52.806;18.270;2024-02-16T06:04:16;32.95;;;16.25;;
51927;SDS011;37953;52.806;18.270;2024-02-16T06:06:42;39.15;;;16.40;;
51927;SDS011;37953;52.806;18.270;2024-02-16T06:09:08;33.35;;;16.23;;
51927;SDS011;37953;52.806;18.270;2024-02-16T06:11:37;35.00;;;16.38;;
51927;SDS011;37953;52.806;18.270;2024-02-16T06:14:04;36.72;;;16.45;;
51927;SDS011;37953;52.806;18.270;2024-02-16T06:16:30;30.40;;;16.23;;
51927;SDS011;37953;52.806;18.270;2024-02-16T06:18:56;31.02;;;16.77;;
51927;SDS011;37953;52.806;18.270;2024-02-16T06:21:23;31.77;;;16.13;;
51927;SDS011;37953;52.806;18.270;2024-02-16T06:23:48;31.95;;;16.73;;
51927;SDS011;37953;52.806;18.270;2024-02-16T06:26:15;28.88;;;16.08;;
51927;SDS011;37953;52.806;18.270;2024-02-16T06:28:40;31.42;;;16.20;;
51927;SDS011;37953;52.806;18.270;2024-02-16T06:31:07;32.28;;;17.35;;
51927;SDS011;37953;52.806;18.270;2024-02-16T06:33:33;29.88;;;16.60;;
51927;SDS011;37953;52.806;18.270;2024-02-16T06:35:59;43.03;;;17.00;;
51927;SDS011;37953;52.806;18.270;2024-02-16T06:38:25;29.42;;;16.20;;
51927;SDS011;37953;52.806;18.270;2024-02-16T06:40:51;31.88;;;16.50;;
51927;SDS011;37953;52.806;18.270;2024-02-16T06:43:17;33.92;;;16.65;;
51927;SDS011;37953;52.806;18.270;2024-02-16T06:45:43;31.30;;;16.63;;
51927;SDS011;37953;52.806;18.270;2024-02-16T06:48:09;30.08;;;16.40;;
51927;SDS011;37953;52.806;18.270;2024-02-16T06:50:35;33.33;;;17.10;;
51927;SDS011;37953;52.806;18.270;2024-02-16T06:53:01;30.63;;;17.25;;
51927;SDS011;37953;52.806;18.270;2024-02-16T06:55:27;30.92;;;16.65;;
51927;SDS011;37953;52.806;18.270;2024-02-16T06:57:53;32.30;;;17.17;;
51927;SDS011;37953;52.806;18.270;2024-02-16T07:00:19;32.60;;;17.95;;
51927;SDS011;37953;52.806;18.270;2024-02-16T07:02:45;33.38;;;18.10;;
51927;SDS011;37953;52.806;18.270;2024-02-16T07:05:11;31.20;;;17.67;;
51927;SDS011;37953;52.806;18.270;2024-02-16T07:07:38;46.25;;;20.25;;
51927;SDS011;37953;52.806;18.270;2024-02-16T07:10:04;40.65;;;19.83;;
51927;SDS011;37953;52.806;18.270;2024-02-16T07:12:30;33.17;;;19.20;;
51927;SDS011;37953;52.806;18.270;2024-02-16T07:14:59;34.10;;;17.63;;
51927;SDS011;37953;52.806;18.270;2024-02-16T07:17:25;31.92;;;17.40;;
51927;SDS011;37953;52.806;18.270;2024-02-16T07:19:51;34.92;;;18.48;;
51927;SDS011;37953;52.806;18.270;2024-02-16T07:22:17;31.60;;;18.20;;
51927;SDS011;37953;52.806;18.270;2024-02-16T07:24:43;34.90;;;17.67;;
51927;SDS011;37953;52.806;18.270;2024-02-16T07:27:09;29.30;;;16.83;;
51927;SDS011;37953;52.806;18.270;2024-02-16T07:29:36;33.30;;;17.55;;
51927;SDS011;37953;52.806;18.270;2024-02-16T07:32:04;31.05;;;17.08;;
51927;SDS011;37953;52.806;18.270;2024-02-16T07:34:30;31.70;;;17.33;;
51927;SDS011;37953;52.806;18.270;2024-02-16T07:36:56;30.38;;;16.98;;
51927;SDS011;37953;52.806;18.270;2024-02-16T07:39:22;38.95;;;17.25;;
51927;SDS011;37953;52.806;18.270;2024-02-16T07:41:50;34.17;;;17.75;;
51927;SDS011;37953;52.806;18.270;2024-02-16T07:44:16;34.15;;;18.42;;
51927;SDS011;37953;52.806;18.270;2024-02-16T07:46:42;42.92;;;20.42;;
51927;SDS011;37953;52.806;18.270;2024-02-16T07:49:09;39.28;;;20.15;;
51927;SDS011;37953;52.806;18.270;2024-02-16T07:51:36;39.70;;;21.75;;
51927;SDS011;37953;52.806;18.270;2024-02-16T07:54:03;45.42;;;23.23;;
51927;SDS011;37953;52.806;18.270;2024-02-16T07:56:29;39.58;;;20.15;;
51927;SDS011;37953;52.806;18.270;2024-02-16T07:58:56;40.90;;;21.75;;
51927;SDS011;37953;52.806;18.270;2024-02-16T08:01:22;36.58;;;20.33;;
51927;SDS011;37953;52.806;18.270;2024-02-16T08:03:48;41.30;;;20.05;;
51927;SDS011;37953;52.806;18.270;2024-02-16T08:06:17;42.55;;;19.83;;
51927;SDS011;37953;52.806;18.270;2024-02-16T08:08:48;43.85;;;21.48;;
51927;SDS011;37953;52.806;18.270;2024-02-16T08:11:14;43.40;;;19.90;;
51927;SDS011;37953;52.806;18.270;2024-02-16T08:13:50;37.90;;;19.25;;
51927;SDS011;37953;52.806;18.270;2024-02-16T08:16:15;39.13;;;18.02;;
51927;SDS011;37953;52.806;18.270;2024-02-16T08:18:45;46.97;;;18.83;;
51927;SDS011;37953;52.806;18.270;2024-02-16T08:21:21;35.53;;;17.90;;
51927;SDS011;37953;52.806;18.270;2024-02-16T08:23:47;32.63;;;17.60;;
51927;SDS011;37953;52.806;18.270;2024-02-16T08:26:13;34.53;;;18.23;;
51927;SDS011;37953;52.806;18.270;2024-02-16T08:28:39;35.30;;;16.35;;
51927;SDS011;37953;52.806;18.270;2024-02-16T08:31:17;31.48;;;16.55;;
51927;SDS011;37953;52.806;18.270;2024-02-16T08:33:44;41.42;;;16.73;;
51927;SDS011;37953;52.806;18.270;2024-02-16T08:36:10;35.50;;;16.80;;
51927;SDS011;37953;52.806;18.270;2024-02-16T08:38:36;32.33;;;16.73;;
51927;SDS011;37953;52.806;18.270;2024-02-16T08:41:03;37.30;;;16.35;;
51927;SDS011;37953;52.806;18.270;2024-02-16T08:43:29;30.52;;;16.48;;
51927;SDS011;37953;52.806;18.270;2024-02-16T08:45:55;28.15;;;15.95;;
51927;SDS011;37953;52.806;18.270;2024-02-16T08:48:23;31.02;;;17.13;;
51927;SDS011;37953;52.806;18.270;2024-02-16T08:50:50;29.88;;;17.48;;
51927;SDS011;37953;52.806;18.270;2024-02-16T08:53:16;32.50;;;17.35;;
51927;SDS011;37953;52.806;18.270;2024-02-16T08:55:42;32.63;;;17.35;;
51927;SDS011;37953;52.806;18.270;2024-02-16T08:58:09;33.92;;;18.08;;
51927;SDS011;37953;52.806;18.270;2024-02-16T09:00:35;33.28;;;17.42;;
51927;SDS011;37953;52.806;18.270;2024-02-16T09:03:01;32.08;;;17.52;;
51927;SDS011;37953;52.806;18.270;2024-02-16T09:05:28;32.03;;;18.73;;
51927;SDS011;37953;52.806;18.270;2024-02-16T09:07:54;35.38;;;18.67;;
51927;SDS011;37953;52.806;18.270;2024-02-16T09:10:20;35.13;;;18.50;;
51927;SDS011;37953;52.806;18.270;2024-02-16T09:12:46;31.92;;;17.58;;
51927;SDS011;37953;52.806;18.270;2024-02-16T09:15:12;35.53;;;18.33;;
51927;SDS011;37953;52.806;18.270;2024-02-16T09:17:41;37.28;;;19.90;;
51927;SDS011;37953;52.806;18.270;2024-02-16T09:20:07;51.95;;;19.92;;
51927;SDS011;37953;52.806;18.270;2024-02-16T09:22:34;50.38;;;21.17;;
51927;SDS011;37953;52.806;18.270;2024-02-16T09:25:01;40.55;;;18.75;;
51927;SDS011;37953;52.806;18.270;2024-02-16T09:27:37;39.47;;;18.80;;
51927;SDS011;37953;52.806;18.270;2024-02-16T09:30:06;42.05;;;18.80;;
51927;SDS011;37953;52.806;18.270;2024-02-16T09:32:32;46.10;;;19.63;;
51927;SDS011;37953;52.806;18.270;2024-02-16T09:34:58;37.70;;;18.27;;
51927;SDS011;37953;52.806;18.270;2024-02-16T09:37:24;44.10;;;21.52;;
51927;SDS011;37953;52.806;18.270;2024-02-16T09:42:18;35.13;;;21.05;;
51927;SDS011;37953;52.806;18.270;2024-02-16T09:44:44;35.00;;;18.70;;
51927;SDS011;37953;52.806;18.270;2024-02-16T09:47:11;31.98;;;18.15;;
51927;SDS011;37953;52.806;18.270;2024-02-16T09:49:47;31.58;;;18.58;;
51927;SDS011;37953;52.806;18.270;2024-02-16T09:52:13;35.08;;;18.10;;
51927;SDS011;37953;52.806;18.270;2024-02-16T09:54:49;36.50;;;19.92;;
51927;SDS011;37953;52.806;18.270;2024-02-16T09:57:18;48.33;;;23.92;;
51927;SDS011;37953;52.806;18.270;2024-02-16T09:59:45;40.25;;;19.60;;
51927;SDS011;37953;52.806;18.270;2024-02-16T10:02:11;38.78;;;22.13;;
51927;SDS011;37953;52.806;18.270;2024-02-16T10:04:37;34.78;;;20.90;;
51927;SDS011;37953;52.806;18.270;2024-02-16T10:07:03;34.55;;;19.38;;
51927;SDS011;37953;52.806;18.270;2024-02-16T10:09:40;46.13;;;19.77;;
51927;SDS011;37953;52.806;18.270;2024-02-16T10:12:06;43.08;;;20.73;;
51927;SDS011;37953;52.806;18.270;2024-02-16T10:14:38;33.83;;;19.70;;
51927;SDS011;37953;52.806;18.270;2024-02-16T10:17:06;34.40;;;19.40;;
51927;SDS011;37953;52.806;18.270;2024-02-16T10:19:33;36.10;;;19.42;;
51927;SDS011;37953;52.806;18.270;2024-02-16T10:22:14;33.38;;;18.83;;
51927;SDS011;37953;52.806;18.270;2024-02-16T10:24:41;35.95;;;17.83;;
51927;SDS011;37953;52.806;18.270;2024-02-16T10:27:14;31.83;;;17.23;;
51927;SDS011;37953;52.806;18.270;2024-02-16T10:29:43;31.70;;;18.25;;
51927;SDS011;37953;52.806;18.270;2024-02-16T10:32:19;34.03;;;16.92;;
51927;SDS011;37953;52.806;18.270;2024-02-16T10:34:46;31.80;;;18.08;;
51927;SDS011;37953;52.806;18.270;2024-02-16T10:37:15;37.45;;;19.50;;
51927;SDS011;37953;52.806;18.270;2024-02-16T10:39:42;32.80;;;17.95;;
51927;SDS011;37953;52.806;18.270;2024-02-16T10:42:10;31.45;;;17.63;;
51927;SDS011;37953;52.806;18.270;2024-02-16T10:44:38;37.38;;;17.35;;
51927;SDS011;37953;52.806;18.270;2024-02-16T10:47:08;40.50;;;18.85;;
51927;SDS011;37953;52.806;18.270;2024-02-16T10:49:34;36.03;;;20.85;;
51927;SDS011;37953;52.806;18.270;2024-02-16T10:52:00;32.35;;;17.38;;
51927;SDS011;37953;52.806;18.270;2024-02-16T10:54:27;33.67;;;16.98;;
51927;SDS011;37953;52.806;18.270;2024-02-16T10:56:56;31.73;;;17.55;;
51927;SDS011;37953;52.806;18.270;2024-02-16T10:59:22;33.65;;;17.98;;
51927;SDS011;37953;52.806;18.270;2024-02-16T11:01:48;38.67;;;20.50;;
51927;SDS011;37953;52.806;18.270;2024-02-16T11:04:37;36.97;;;18.52;;
51927;SDS011;37953;52.806;18.270;2024-02-16T11:07:11;40.00;;;20.50;;
51927;SDS011;37953;52.806;18.270;2024-02-16T11:09:49;38.80;;;19.20;;
51927;SDS011;37953;52.806;18.270;2024-02-16T11:12:15;38.72;;;21.05;;
51927;SDS011;37953;52.806;18.270;2024-02-16T11:14:45;37.60;;;19.80;;
51927;SDS011;37953;52.806;18.270;2024-02-16T11:17:13;38.30;;;19.90;;
51927;SDS011;37953;52.806;18.270;2024-02-16T11:19:44;37.30;;;20.00;;
51927;SDS011;37953;52.806;18.270;2024-02-16T11:22:11;34.90;;;19.52;;
51927;SDS011;37953;52.806;18.270;2024-02-16T11:24:52;37.33;;;20.38;;
51927;SDS011;37953;52.806;18.270;2024-02-16T11:27:35;36.92;;;18.95;;
51927;SDS011;37953;52.806;18.270;2024-02-16T11:30:01;35.45;;;19.58;;
51927;SDS011;37953;52.806;18.270;2024-02-16T11:32:28;33.10;;;18.63;;
51927;SDS011;37953;52.806;18.270;2024-02-16T11:35:09;36.13;;;18.67;;
51927;SDS011;37953;52.806;18.270;2024-02-16T11:37:42;35.42;;;19.17;;
51927;SDS011;37953;52.806;18.270;2024-02-16T11:40:14;158.73;;;21.52;;
51927;SDS011;37953;52.806;18.270;2024-02-16T11:42:39;35.97;;;17.73;;
51927;SDS011;37953;52.806;18.270;2024-02-16T11:45:10;41.35;;;17.80;;
51927;SDS011;37953;52.806;18.270;2024-02-16T11:47:39;46.20;;;18.85;;
51927;SDS011;37953;52.806;18.270;2024-02-16T11:50:06;37.67;;;17.13;;
51927;SDS011;37953;52.806;18.270;2024-02-16T11:52:37;36.50;;;16.73;;
51927;SDS011;37953;52.806;18.270;2024-02-16T11:55:07;37.70;;;17.42;;
51927;SDS011;37953;52.806;18.270;2024-02-16T11:57:34;44.22;;;15.48;;
51927;SDS011;37953;52.806;18.270;2024-02-16T12:00:35;38.00;;;15.90;;
51927;SDS011;37953;52.806;18.270;2024-02-16T12:03:02;49.40;;;16.45;;
51927;SDS011;37953;52.806;18.270;2024-02-16T12:05:28;31.85;;;14.23;;
51927;SDS011;37953;52.806;18.270;2024-02-16T12:07:57;37.75;;;14.68;;
51927;SDS011;37953;52.806;18.270;2024-02-16T12:10:24;56.33;;;14.98;;
51927;SDS011;37953;52.806;18.270;2024-02-16T12:12:53;27.65;;;14.48;;
51927;SDS011;37953;52.806;18.270;2024-02-16T12:15:38;27.65;;;15.32;;
51927;SDS011;37953;52.806;18.270;2024-02-16T12:18:04;29.75;;;13.98;;
51927;SDS011;37953;52.806;18.270;2024-02-16T12:20:31;26.98;;;13.85;;
51927;SDS011;37953;52.806;18.270;2024-02-16T12:22:57;24.48;;;12.63;;
51927;SDS011;37953;52.806;18.270;2024-02-16T12:25:25;24.63;;;12.93;;
51927;SDS011;37953;52.806;18.270;2024-02-16T12:27:51;21.45;;;12.48;;
51927;SDS011;37953;52.806;18.270;2024-02-16T12:30:17;31.92;;;12.63;;
51927;SDS011;37953;52.806;18.270;2024-02-16T12:32:43;21.38;;;12.43;;
51927;SDS011;37953;52.806;18.270;2024-02-16T12:35:10;23.63;;;12.07;;
51927;SDS011;37953;52.806;18.270;2024-02-16T12:37:36;31.02;;;11.82;;
51927;SDS011;37953;52.806;18.270;2024-02-16T12:40:10;97.75;;;14.57;;
51927;SDS011;37953;52.806;18.270;2024-02-16T12:42:36;21.13;;;11.55;;
51927;SDS011;37953;52.806;18.270;2024-02-16T12:45:03;23.48;;;11.88;;
51927;SDS011;37953;52.806;18.270;2024-02-16T12:47:29;24.52;;;12.02;;
51927;SDS011;37953;52.806;18.270;2024-02-16T12:49:56;24.38;;;11.95;;
51927;SDS011;37953;52.806;18.270;2024-02-16T12:52:31;20.40;;;11.00;;
51927;SDS011;37953;52.806;18.270;2024-02-16T12:54:59;21.42;;;11.10;;
51927;SDS011;37953;52.806;18.270;2024-02-16T12:57:25;24.73;;;11.55;;
51927;SDS011;37953;52.806;18.270;2024-02-16T12:59:54;23.98;;;11.75;;
51927;SDS011;37953;52.806;18.270;2024-02-16T13:02:20;21.88;;;11.30;;
51927;SDS011;37953;52.806;18.270;2024-02-16T13:04:46;24.38;;;12.00;;
51927;SDS011;37953;52.806;18.270;2024-02-16T13:07:12;23.05;;;11.07;;
51927;SDS011;37953;52.806;18.270;2024-02-16T13:09:38;31.27;;;12.27;;
51927;SDS011;37953;52.806;18.270;2024-02-16T13:12:05;41.85;;;12.45;;
51927;SDS011;37953;52.806;18.270;2024-02-16T13:14:34;29.50;;;12.13;;
51927;SDS011;37953;52.806;18.270;2024-02-16T13:17:00;30.48;;;12.13;;
51927;SDS011;37953;52.806;18.270;2024-02-16T13:19:26;32.95;;;11.68;;
51927;SDS011;37953;52.806;18.270;2024-02-16T13:21:52;32.58;;;11.40;;
51927;SDS011;37953;52.806;18.270;2024-02-16T13:24:18;36.65;;;11.77;;
51927;SDS011;37953;52.806;18.270;2024-02-16T13:26:44;32.05;;;12.13;;
51927;SDS011;37953;52.806;18.270;2024-02-16T13:29:11;34.95;;;12.07;;
51927;SDS011;37953;52.806;18.270;2024-02-16T13:31:37;33.92;;;12.57;;
51927;SDS011;37953;52.806;18.270;2024-02-16T13:34:05;34.30;;;12.35;;
51927;SDS011;37953;52.806;18.270;2024-02-16T13:36:31;29.63;;;12.23;;
51927;SDS011;37953;52.806;18.270;2024-02-16T13:38:57;26.45;;;10.90;;
51927;SDS011;37953;52.806;18.270;2024-02-16T13:41:24;21.40;;;11.43;;
51927;SDS011;37953;52.806;18.270;2024-02-16T13:43:51;24.80;;;11.50;;
51927;SDS011;37953;52.806;18.270;2024-02-16T13:46:17;20.75;;;10.93;;
51927;SDS011;37953;52.806;18.270;2024-02-16T13:48:43;34.92;;;11.82;;
51927;SDS011;37953;52.806;18.270;2024-02-16T13:51:09;25.67;;;11.75;;
51927;SDS011;37953;52.806;18.270;2024-02-16T13:53:35;24.40;;;11.90;;
51927;SDS011;37953;52.806;18.270;2024-02-16T13:56:01;27.08;;;11.80;;
51927;SDS011;37953;52.806;18.270;2024-02-16T13:58:30;22.85;;;11.88;;
51927;SDS011;37953;52.806;18.270;2024-02-16T14:00:59;28.05;;;13.02;;
51927;SDS011;37953;52.806;18.270;2024-02-16T14:03:26;23.50;;;12.52;;
51927;SDS011;37953;52.806;18.270;2024-02-16T14:05:54;22.65;;;13.02;;
51927;SDS011;37953;52.806;18.270;2024-02-16T14:08:21;34.25;;;12.88;;
51927;SDS011;37953;52.806;18.270;2024-02-16T14:10:48;23.33;;;13.25;;
51927;SDS011;37953;52.806;18.270;2024-02-16T14:13:14;24.77;;;13.23;;